Maupin, OR

3:40 PM PST on February 10, 2016 (GMT -0800)
Sportsmans Park | | Change Station
CLOSE
Current Station
Personal Weather Station
Location: Tygh Valley, OR
Elevation: 2293 ft
Nearby Weather Stations

Elev 2293 ft 45.22 °N, 121.40 °W | Updated 6 minutes ago

Overcast
Overcast
57.4 °F
Feels Like 57.4 °F
N
1.1
Wind Variable Wind from ESE

Today
High -- | Low -- °F
--% Chance of Precip.
Yesterday
High -- | Low -- °F
Precip. -- in
Pressure 30.27 in
Visibility 10.0 miles
Clouds Overcast 7500 ft
Dew Point 41 °F
Humidity 54%
Rainfall 0.00 in
Snow Depth Not available.
7:14 AM 5:25 PM
Waxing Crescent, 8% visible
METAR KRDM 102256Z 06005KT 10SM OVC075 14/01 A3027 RMK AO2 SLP251 T01440006
Pressure 30.27 in
Visibility 10.0 miles
Clouds Overcast 7500 ft
Dew Point 41 °F
Humidity 54%
Rainfall 0.00 in
Snow Depth Not available.
7:14 AM 5:25 PM
Waxing Crescent, 8% visible
METAR KRDM 102256Z 06005KT 10SM OVC075 14/01 A3027 RMK AO2 SLP251 T01440006

10-Day Weather Forecast

Almanac

Astronomy

Feb. 10, 2016 Rise Set
Actual Time
Civil Twilight
Nautical Twilight
Astronomical Twilight
Moon
Length of Visible Light
Length of Day
Tomorrow will be .
, % of the Moon is Illuminated

Today's Extremes

State Highs State Lows

Community

WunderPhotos

Upload Photos

1,891,935 photos uploaded!

WunderBlog® & News

Nearby

Air Quality

  Air Quality AQ Index Pollutant
Not available.

Snow Depth

Station Depth Elevation

Earthquake Activity

City Distance Mag. Time & Date
Minimum magnitude displayed is 2.5.

Coastal Water Temperatures

Place Temperature

Stations

Nearby Weather Stations

Station Location Temp. Windchill Dew Point Humidity Wind Precip. Elev Updated Type
                   

Watches & Warnings

There are currently no watches in effect.